sensor_id;sensor_type;location;lat;lon;timestamp;P1;durP1;ratioP1;P2;durP2;ratioP2
9372;SDS011;10838;52.350;9.790;2022-11-15T00:00:05;19.93;;;14.10;;
9372;SDS011;10838;52.350;9.790;2022-11-15T00:02:33;18.90;;;13.77;;
9372;SDS011;10838;52.350;9.790;2022-11-15T00:05:01;17.07;;;13.80;;
9372;SDS011;10838;52.350;9.790;2022-11-15T00:07:28;23.67;;;15.20;;
9372;SDS011;10838;52.350;9.790;2022-11-15T00:09:55;22.07;;;14.47;;
9372;SDS011;10838;52.350;9.790;2022-11-15T00:12:21;21.83;;;14.20;;
9372;SDS011;10838;52.350;9.790;2022-11-15T00:14:48;21.23;;;14.10;;
9372;SDS011;10838;52.350;9.790;2022-11-15T00:17:14;21.23;;;14.80;;
9372;SDS011;10838;52.350;9.790;2022-11-15T00:19:41;20.17;;;13.87;;
9372;SDS011;10838;52.350;9.790;2022-11-15T00:22:09;19.23;;;13.17;;
9372;SDS011;10838;52.350;9.790;2022-11-15T00:24:36;20.03;;;14.20;;
9372;SDS011;10838;52.350;9.790;2022-11-15T00:27:03;20.93;;;13.67;;
9372;SDS011;10838;52.350;9.790;2022-11-15T00:29:29;17.50;;;13.83;;
9372;SDS011;10838;52.350;9.790;2022-11-15T00:31:56;20.67;;;14.30;;
9372;SDS011;10838;52.350;9.790;2022-11-15T00:34:22;17.87;;;13.20;;
9372;SDS011;10838;52.350;9.790;2022-11-15T00:36:49;19.30;;;13.83;;
9372;SDS011;10838;52.350;9.790;2022-11-15T00:39:17;17.00;;;12.77;;
9372;SDS011;10838;52.350;9.790;2022-11-15T00:41:44;17.40;;;13.10;;
9372;SDS011;10838;52.350;9.790;2022-11-15T00:44:10;16.27;;;12.70;;
9372;SDS011;10838;52.350;9.790;2022-11-15T00:46:37;17.33;;;12.47;;
9372;SDS011;10838;52.350;9.790;2022-11-15T00:49:04;17.27;;;13.27;;
9372;SDS011;10838;52.350;9.790;2022-11-15T00:51:30;20.80;;;14.03;;
9372;SDS011;10838;52.350;9.790;2022-11-15T00:53:57;17.37;;;12.57;;
9372;SDS011;10838;52.350;9.790;2022-11-15T00:56:25;17.57;;;12.70;;
9372;SDS011;10838;52.350;9.790;2022-11-15T00:58:52;16.07;;;12.77;;
9372;SDS011;10838;52.350;9.790;2022-11-15T01:01:18;17.27;;;13.27;;
9372;SDS011;10838;52.350;9.790;2022-11-15T01:03:45;21.17;;;14.03;;
9372;SDS011;10838;52.350;9.790;2022-11-15T01:06:12;19.73;;;13.63;;
9372;SDS011;10838;52.350;9.790;2022-11-15T01:08:39;17.07;;;12.70;;
9372;SDS011;10838;52.350;9.790;2022-11-15T01:11:06;19.17;;;14.10;;
9372;SDS011;10838;52.350;9.790;2022-11-15T01:13:36;16.83;;;13.40;;
9372;SDS011;10838;52.350;9.790;2022-11-15T01:16:05;19.77;;;13.00;;
9372;SDS011;10838;52.350;9.790;2022-11-15T01:18:33;19.60;;;13.20;;
9372;SDS011;10838;52.350;9.790;2022-11-15T01:21:03;15.83;;;12.10;;
9372;SDS011;10838;52.350;9.790;2022-11-15T01:23:31;16.70;;;13.27;;
9372;SDS011;10838;52.350;9.790;2022-11-15T01:25:58;19.17;;;12.60;;
9372;SDS011;10838;52.350;9.790;2022-11-15T01:28:25;17.97;;;12.33;;
9372;SDS011;10838;52.350;9.790;2022-11-15T01:30:58;19.87;;;12.93;;
9372;SDS011;10838;52.350;9.790;2022-11-15T01:33:25;14.30;;;11.90;;
9372;SDS011;10838;52.350;9.790;2022-11-15T01:35:52;18.30;;;12.10;;
9372;SDS011;10838;52.350;9.790;2022-11-15T01:38:19;16.07;;;11.70;;
9372;SDS011;10838;52.350;9.790;2022-11-15T01:40:46;18.50;;;12.50;;
9372;SDS011;10838;52.350;9.790;2022-11-15T01:43:19;14.20;;;11.67;;
9372;SDS011;10838;52.350;9.790;2022-11-15T01:45:48;15.60;;;12.00;;
9372;SDS011;10838;52.350;9.790;2022-11-15T01:48:20;15.70;;;11.43;;
9372;SDS011;10838;52.350;9.790;2022-11-15T01:50:47;16.37;;;11.70;;
9372;SDS011;10838;52.350;9.790;2022-11-15T01:53:16;17.87;;;11.33;;
9372;SDS011;10838;52.350;9.790;2022-11-15T01:55:44;15.70;;;11.60;;
9372;SDS011;10838;52.350;9.790;2022-11-15T01:58:11;13.77;;;10.93;;
9372;SDS011;10838;52.350;9.790;2022-11-15T02:00:38;15.27;;;11.70;;
9372;SDS011;10838;52.350;9.790;2022-11-15T02:03:05;14.07;;;11.47;;
9372;SDS011;10838;52.350;9.790;2022-11-15T02:05:33;14.10;;;11.23;;
9372;SDS011;10838;52.350;9.790;2022-11-15T02:08:02;15.03;;;11.13;;
9372;SDS011;10838;52.350;9.790;2022-11-15T02:10:29;20.17;;;11.50;;
9372;SDS011;10838;52.350;9.790;2022-11-15T02:16:20;16.20;;;11.80;;
9372;SDS011;10838;52.350;9.790;2022-11-15T02:18:56;15.77;;;11.80;;
9372;SDS011;10838;52.350;9.790;2022-11-15T02:21:35;16.60;;;11.57;;
9372;SDS011;10838;52.350;9.790;2022-11-15T02:24:12;19.10;;;11.63;;
9372;SDS011;10838;52.350;9.790;2022-11-15T02:27:02;15.53;;;11.30;;
9372;SDS011;10838;52.350;9.790;2022-11-15T02:30:17;18.23;;;10.97;;
9372;SDS011;10838;52.350;9.790;2022-11-15T02:32:47;18.47;;;11.63;;
9372;SDS011;10838;52.350;9.790;2022-11-15T02:35:20;16.13;;;10.17;;
9372;SDS011;10838;52.350;9.790;2022-11-15T02:37:55;14.10;;;10.13;;
9372;SDS011;10838;52.350;9.790;2022-11-15T02:40:27;15.77;;;9.87;;
9372;SDS011;10838;52.350;9.790;2022-11-15T02:43:03;16.40;;;10.17;;
9372;SDS011;10838;52.350;9.790;2022-11-15T02:45:57;13.90;;;9.97;;
9372;SDS011;10838;52.350;9.790;2022-11-15T02:48:28;13.53;;;9.83;;
9372;SDS011;10838;52.350;9.790;2022-11-15T02:50:56;15.57;;;10.53;;
9372;SDS011;10838;52.350;9.790;2022-11-15T02:53:24;14.70;;;10.30;;
9372;SDS011;10838;52.350;9.790;2022-11-15T02:55:51;22.23;;;12.57;;
9372;SDS011;10838;52.350;9.790;2022-11-15T02:58:31;14.93;;;12.00;;
9372;SDS011;10838;52.350;9.790;2022-11-15T03:01:14;19.50;;;12.27;;
9372;SDS011;10838;52.350;9.790;2022-11-15T03:03:54;17.43;;;11.83;;
9372;SDS011;10838;52.350;9.790;2022-11-15T03:06:30;19.93;;;11.40;;
9372;SDS011;10838;52.350;9.790;2022-11-15T03:09:03;16.97;;;11.63;;
9372;SDS011;10838;52.350;9.790;2022-11-15T03:11:34;18.57;;;12.00;;
9372;SDS011;10838;52.350;9.790;2022-11-15T03:14:08;19.70;;;12.47;;
9372;SDS011;10838;52.350;9.790;2022-11-15T03:16:46;15.53;;;11.70;;
9372;SDS011;10838;52.350;9.790;2022-11-15T03:19:22;18.10;;;12.33;;
9372;SDS011;10838;52.350;9.790;2022-11-15T03:21:55;15.97;;;11.10;;
9372;SDS011;10838;52.350;9.790;2022-11-15T03:24:26;15.27;;;11.13;;
9372;SDS011;10838;52.350;9.790;2022-11-15T03:26:56;16.80;;;11.03;;
9372;SDS011;10838;52.350;9.790;2022-11-15T03:29:27;16.00;;;10.70;;
9372;SDS011;10838;52.350;9.790;2022-11-15T03:32:00;15.50;;;10.37;;
9372;SDS011;10838;52.350;9.790;2022-11-15T03:34:32;17.77;;;11.07;;
9372;SDS011;10838;52.350;9.790;2022-11-15T03:37:03;18.53;;;9.90;;
9372;SDS011;10838;52.350;9.790;2022-11-15T03:39:31;14.27;;;9.63;;
9372;SDS011;10838;52.350;9.790;2022-11-15T03:42:02;13.40;;;9.70;;
9372;SDS011;10838;52.350;9.790;2022-11-15T03:44:36;12.17;;;8.87;;
9372;SDS011;10838;52.350;9.790;2022-11-15T03:47:10;10.47;;;8.20;;
9372;SDS011;10838;52.350;9.790;2022-11-15T03:49:42;11.93;;;8.40;;
9372;SDS011;10838;52.350;9.790;2022-11-15T03:52:12;13.83;;;7.20;;
9372;SDS011;10838;52.350;9.790;2022-11-15T03:54:52;10.53;;;7.47;;
9372;SDS011;10838;52.350;9.790;2022-11-15T03:57:20;10.07;;;7.67;;
9372;SDS011;10838;52.350;9.790;2022-11-15T03:59:47;13.60;;;8.27;;
9372;SDS011;10838;52.350;9.790;2022-11-15T04:02:15;8.57;;;6.73;;
9372;SDS011;10838;52.350;9.790;2022-11-15T04:04:41;9.13;;;6.77;;
9372;SDS011;10838;52.350;9.790;2022-11-15T04:07:08;12.23;;;6.93;;
9372;SDS011;10838;52.350;9.790;2022-11-15T04:09:35;10.00;;;6.40;;
9372;SDS011;10838;52.350;9.790;2022-11-15T04:12:22;13.27;;;6.30;;
9372;SDS011;10838;52.350;9.790;2022-11-15T04:14:55;7.30;;;6.40;;
9372;SDS011;10838;52.350;9.790;2022-11-15T04:17:34;7.33;;;6.40;;
9372;SDS011;10838;52.350;9.790;2022-11-15T04:20:01;6.37;;;5.60;;
9372;SDS011;10838;52.350;9.790;2022-11-15T04:22:46;7.50;;;6.30;;
9372;SDS011;10838;52.350;9.790;2022-11-15T04:25:30;7.37;;;6.00;;
9372;SDS011;10838;52.350;9.790;2022-11-15T04:27:57;6.10;;;5.17;;
9372;SDS011;10838;52.350;9.790;2022-11-15T04:30:24;5.70;;;5.07;;
9372;SDS011;10838;52.350;9.790;2022-11-15T04:32:52;10.33;;;5.57;;
9372;SDS011;10838;52.350;9.790;2022-11-15T04:35:19;8.73;;;5.03;;
9372;SDS011;10838;52.350;9.790;2022-11-15T04:37:45;7.40;;;5.23;;
9372;SDS011;10838;52.350;9.790;2022-11-15T04:40:11;8.57;;;5.57;;
9372;SDS011;10838;52.350;9.790;2022-11-15T04:42:40;8.70;;;4.77;;
9372;SDS011;10838;52.350;9.790;2022-11-15T04:45:07;8.77;;;5.27;;
9372;SDS011;10838;52.350;9.790;2022-11-15T04:47:35;5.87;;;5.20;;
9372;SDS011;10838;52.350;9.790;2022-11-15T04:50:03;4.77;;;4.30;;
9372;SDS011;10838;52.350;9.790;2022-11-15T04:52:30;8.00;;;5.00;;
9372;SDS011;10838;52.350;9.790;2022-11-15T04:54:57;6.83;;;5.10;;
9372;SDS011;10838;52.350;9.790;2022-11-15T04:57:24;6.13;;;4.47;;
9372;SDS011;10838;52.350;9.790;2022-11-15T04:59:50;8.03;;;5.10;;
9372;SDS011;10838;52.350;9.790;2022-11-15T05:02:17;6.30;;;4.80;;
9372;SDS011;10838;52.350;9.790;2022-11-15T05:04:44;7.80;;;4.90;;
9372;SDS011;10838;52.350;9.790;2022-11-15T05:07:10;6.03;;;4.87;;
9372;SDS011;10838;52.350;9.790;2022-11-15T05:09:37;5.77;;;5.20;;
9372;SDS011;10838;52.350;9.790;2022-11-15T05:12:04;6.90;;;4.80;;
9372;SDS011;10838;52.350;9.790;2022-11-15T05:14:31;6.87;;;5.30;;
9372;SDS011;10838;52.350;9.790;2022-11-15T05:16:57;5.50;;;5.00;;
9372;SDS011;10838;52.350;9.790;2022-11-15T05:19:24;5.43;;;4.70;;
9372;SDS011;10838;52.350;9.790;2022-11-15T05:21:51;6.97;;;5.17;;
9372;SDS011;10838;52.350;9.790;2022-11-15T05:24:19;9.70;;;4.87;;
9372;SDS011;10838;52.350;9.790;2022-11-15T05:26:45;7.70;;;4.97;;
9372;SDS011;10838;52.350;9.790;2022-11-15T05:29:12;7.23;;;4.73;;
9372;SDS011;10838;52.350;9.790;2022-11-15T05:31:39;5.40;;;4.90;;
9372;SDS011;10838;52.350;9.790;2022-11-15T05:34:07;11.53;;;5.97;;
9372;SDS011;10838;52.350;9.790;2022-11-15T05:36:34;6.93;;;5.70;;
9372;SDS011;10838;52.350;9.790;2022-11-15T05:39:03;7.00;;;6.23;;
9372;SDS011;10838;52.350;9.790;2022-11-15T05:41:32;6.47;;;5.80;;
9372;SDS011;10838;52.350;9.790;2022-11-15T05:44:02;8.77;;;6.10;;
9372;SDS011;10838;52.350;9.790;2022-11-15T05:46:32;6.00;;;5.50;;
9372;SDS011;10838;52.350;9.790;2022-11-15T05:48:59;7.30;;;5.60;;
9372;SDS011;10838;52.350;9.790;2022-11-15T05:51:26;8.20;;;6.00;;
9372;SDS011;10838;52.350;9.790;2022-11-15T05:53:54;9.20;;;5.57;;
9372;SDS011;10838;52.350;9.790;2022-11-15T05:56:24;9.07;;;5.60;;
9372;SDS011;10838;52.350;9.790;2022-11-15T05:58:52;5.77;;;5.13;;
9372;SDS011;10838;52.350;9.790;2022-11-15T06:01:20;7.17;;;5.80;;
9372;SDS011;10838;52.350;9.790;2022-11-15T06:03:47;7.20;;;6.50;;
9372;SDS011;10838;52.350;9.790;2022-11-15T06:06:14;8.83;;;6.17;;
9372;SDS011;10838;52.350;9.790;2022-11-15T06:08:41;8.50;;;6.07;;
9372;SDS011;10838;52.350;9.790;2022-11-15T06:11:07;6.50;;;5.77;;
9372;SDS011;10838;52.350;9.790;2022-11-15T06:13:34;10.17;;;6.73;;
9372;SDS011;10838;52.350;9.790;2022-11-15T06:16:02;7.47;;;6.03;;
9372;SDS011;10838;52.350;9.790;2022-11-15T06:18:31;7.87;;;6.67;;
9372;SDS011;10838;52.350;9.790;2022-11-15T06:20:58;6.93;;;5.87;;
9372;SDS011;10838;52.350;9.790;2022-11-15T06:23:26;6.73;;;5.30;;
9372;SDS011;10838;52.350;9.790;2022-11-15T06:25:52;7.20;;;5.33;;
9372;SDS011;10838;52.350;9.790;2022-11-15T06:28:19;6.63;;;5.23;;
9372;SDS011;10838;52.350;9.790;2022-11-15T06:30:46;7.77;;;5.50;;
9372;SDS011;10838;52.350;9.790;2022-11-15T06:33:14;8.67;;;5.40;;
9372;SDS011;10838;52.350;9.790;2022-11-15T06:35:40;12.27;;;5.53;;
9372;SDS011;10838;52.350;9.790;2022-11-15T06:38:08;12.80;;;5.13;;
9372;SDS011;10838;52.350;9.790;2022-11-15T06:40:36;7.80;;;5.63;;
9372;SDS011;10838;52.350;9.790;2022-11-15T06:43:05;7.23;;;5.40;;
9372;SDS011;10838;52.350;9.790;2022-11-15T06:45:32;7.23;;;4.83;;
9372;SDS011;10838;52.350;9.790;2022-11-15T06:47:59;12.00;;;5.33;;
9372;SDS011;10838;52.350;9.790;2022-11-15T06:50:27;7.70;;;4.80;;
9372;SDS011;10838;52.350;9.790;2022-11-15T06:52:54;7.50;;;5.17;;
9372;SDS011;10838;52.350;9.790;2022-11-15T06:55:20;6.13;;;4.50;;
9372;SDS011;10838;52.350;9.790;2022-11-15T06:57:48;6.57;;;5.13;;
9372;SDS011;10838;52.350;9.790;2022-11-15T07:00:15;9.77;;;6.00;;
9372;SDS011;10838;52.350;9.790;2022-11-15T07:02:43;7.83;;;5.50;;
9372;SDS011;10838;52.350;9.790;2022-11-15T07:05:10;8.03;;;5.43;;
9372;SDS011;10838;52.350;9.790;2022-11-15T07:07:38;9.67;;;5.87;;
9372;SDS011;10838;52.350;9.790;2022-11-15T07:10:06;9.07;;;5.73;;
9372;SDS011;10838;52.350;9.790;2022-11-15T07:12:33;6.40;;;5.70;;
9372;SDS011;10838;52.350;9.790;2022-11-15T07:15:00;7.10;;;6.07;;
9372;SDS011;10838;52.350;9.790;2022-11-15T07:17:27;7.07;;;5.67;;
9372;SDS011;10838;52.350;9.790;2022-11-15T07:19:53;9.47;;;5.30;;
9372;SDS011;10838;52.350;9.790;2022-11-15T07:22:20;12.07;;;6.53;;
9372;SDS011;10838;52.350;9.790;2022-11-15T07:24:48;9.90;;;5.67;;
9372;SDS011;10838;52.350;9.790;2022-11-15T07:27:15;6.23;;;5.47;;
9372;SDS011;10838;52.350;9.790;2022-11-15T07:29:41;6.67;;;5.33;;
9372;SDS011;10838;52.350;9.790;2022-11-15T07:32:08;9.90;;;6.07;;
9372;SDS011;10838;52.350;9.790;2022-11-15T07:34:35;12.17;;;5.67;;
9372;SDS011;10838;52.350;9.790;2022-11-15T07:37:02;7.47;;;5.37;;
9372;SDS011;10838;52.350;9.790;2022-11-15T07:39:29;10.80;;;5.73;;
9372;SDS011;10838;52.350;9.790;2022-11-15T07:41:57;9.97;;;6.03;;
9372;SDS011;10838;52.350;9.790;2022-11-15T07:44:37;6.07;;;4.97;;
9372;SDS011;10838;52.350;9.790;2022-11-15T07:47:04;8.10;;;5.43;;
9372;SDS011;10838;52.350;9.790;2022-11-15T07:49:30;5.53;;;5.07;;
9372;SDS011;10838;52.350;9.790;2022-11-15T07:51:57;5.20;;;4.70;;
9372;SDS011;10838;52.350;9.790;2022-11-15T07:54:24;11.53;;;5.20;;
9372;SDS011;10838;52.350;9.790;2022-11-15T07:56:50;6.77;;;5.03;;
9372;SDS011;10838;52.350;9.790;2022-11-15T07:59:18;4.97;;;4.57;;
9372;SDS011;10838;52.350;9.790;2022-11-15T08:01:45;6.63;;;4.53;;
9372;SDS011;10838;52.350;9.790;2022-11-15T08:04:12;5.83;;;4.33;;
9372;SDS011;10838;52.350;9.790;2022-11-15T08:06:39;5.97;;;5.00;;
9372;SDS011;10838;52.350;9.790;2022-11-15T08:09:05;7.73;;;4.97;;
9372;SDS011;10838;52.350;9.790;2022-11-15T08:11:32;7.10;;;5.07;;
9372;SDS011;10838;52.350;9.790;2022-11-15T08:13:59;5.60;;;4.63;;
9372;SDS011;10838;52.350;9.790;2022-11-15T08:16:27;5.67;;;4.57;;
9372;SDS011;10838;52.350;9.790;2022-11-15T08:18:53;7.67;;;4.53;;
9372;SDS011;10838;52.350;9.790;2022-11-15T08:21:20;7.73;;;4.57;;
9372;SDS011;10838;52.350;9.790;2022-11-15T08:23:47;6.60;;;5.20;;
9372;SDS011;10838;52.350;9.790;2022-11-15T08:26:14;7.60;;;4.63;;
9372;SDS011;10838;52.350;9.790;2022-11-15T08:28:41;8.03;;;4.90;;
9372;SDS011;10838;52.350;9.790;2022-11-15T08:31:12;8.30;;;5.17;;
9372;SDS011;10838;52.350;9.790;2022-11-15T08:33:41;7.93;;;5.23;;
9372;SDS011;10838;52.350;9.790;2022-11-15T08:36:10;6.90;;;4.47;;
9372;SDS011;10838;52.350;9.790;2022-11-15T08:38:39;7.47;;;4.63;;
9372;SDS011;10838;52.350;9.790;2022-11-15T08:41:05;8.97;;;4.70;;
9372;SDS011;10838;52.350;9.790;2022-11-15T08:43:32;7.27;;;4.83;;
9372;SDS011;10838;52.350;9.790;2022-11-15T08:45:59;4.73;;;4.30;;
9372;SDS011;10838;52.350;9.790;2022-11-15T08:48:26;8.90;;;4.80;;
9372;SDS011;10838;52.350;9.790;2022-11-15T08:50:54;6.93;;;4.73;;
9372;SDS011;10838;52.350;9.790;2022-11-15T08:53:21;6.20;;;4.53;;
9372;SDS011;10838;52.350;9.790;2022-11-15T08:55:48;7.03;;;4.70;;
9372;SDS011;10838;52.350;9.790;2022-11-15T08:58:14;5.27;;;4.60;;
9372;SDS011;10838;52.350;9.790;2022-11-15T09:00:41;7.40;;;5.10;;
9372;SDS011;10838;52.350;9.790;2022-11-15T09:03:08;5.83;;;4.37;;
9372;SDS011;10838;52.350;9.790;2022-11-15T09:05:35;5.97;;;4.50;;
9372;SDS011;10838;52.350;9.790;2022-11-15T09:08:04;4.53;;;4.10;;
9372;SDS011;10838;52.350;9.790;2022-11-15T09:10:31;8.23;;;4.40;;
9372;SDS011;10838;52.350;9.790;2022-11-15T09:12:57;5.60;;;4.13;;
9372;SDS011;10838;52.350;9.790;2022-11-15T09:15:24;7.53;;;4.30;;
9372;SDS011;10838;52.350;9.790;2022-11-15T09:17:51;5.57;;;4.40;;
9372;SDS011;10838;52.350;9.790;2022-11-15T09:20:18;9.47;;;4.90;;
9372;SDS011;10838;52.350;9.790;2022-11-15T09:22:44;5.60;;;3.90;;
9372;SDS011;10838;52.350;9.790;2022-11-15T09:25:12;8.17;;;4.80;;
9372;SDS011;10838;52.350;9.790;2022-11-15T09:27:39;5.33;;;4.23;;
9372;SDS011;10838;52.350;9.790;2022-11-15T09:30:06;4.17;;;3.77;;
9372;SDS011;10838;52.350;9.790;2022-11-15T09:32:33;6.30;;;4.37;;
9372;SDS011;10838;52.350;9.790;2022-11-15T09:35:00;5.97;;;4.37;;
9372;SDS011;10838;52.350;9.790;2022-11-15T09:37:27;5.17;;;3.90;;
9372;SDS011;10838;52.350;9.790;2022-11-15T09:39:54;5.00;;;4.00;;
9372;SDS011;10838;52.350;9.790;2022-11-15T09:42:28;5.43;;;3.90;;
9372;SDS011;10838;52.350;9.790;2022-11-15T09:45:10;6.60;;;4.07;;
9372;SDS011;10838;52.350;9.790;2022-11-15T09:50:36;4.30;;;3.90;;
9372;SDS011;10838;52.350;9.790;2022-11-15T09:53:08;4.10;;;3.60;;
9372;SDS011;10838;52.350;9.790;2022-11-15T09:55:40;3.70;;;3.40;;
9372;SDS011;10838;52.350;9.790;2022-11-15T09:58:18;4.63;;;3.73;;
9372;SDS011;10838;52.350;9.790;2022-11-15T10:00:53;5.07;;;3.87;;
9372;SDS011;10838;52.350;9.790;2022-11-15T10:03:22;6.17;;;3.63;;
9372;SDS011;10838;52.350;9.790;2022-11-15T10:05:54;4.27;;;3.33;;
9372;SDS011;10838;52.350;9.790;2022-11-15T10:08:31;5.17;;;3.53;;
9372;SDS011;10838;52.350;9.790;2022-11-15T10:11:15;3.80;;;3.50;;
9372;SDS011;10838;52.350;9.790;2022-11-15T10:13:47;4.80;;;3.27;;
9372;SDS011;10838;52.350;9.790;2022-11-15T10:16:22;5.73;;;3.17;;
9372;SDS011;10838;52.350;9.790;2022-11-15T10:19:09;4.83;;;3.73;;
9372;SDS011;10838;52.350;9.790;2022-11-15T10:21:46;7.60;;;3.47;;
9372;SDS011;10838;52.350;9.790;2022-11-15T10:24:25;3.57;;;3.10;;
9372;SDS011;10838;52.350;9.790;2022-11-15T10:26:54;3.40;;;3.10;;
9372;SDS011;10838;52.350;9.790;2022-11-15T10:29:23;7.70;;;3.60;;
9372;SDS011;10838;52.350;9.790;2022-11-15T10:31:51;3.43;;;3.13;;
9372;SDS011;10838;52.350;9.790;2022-11-15T10:34:19;4.50;;;3.27;;
9372;SDS011;10838;52.350;9.790;2022-11-15T10:36:53;3.90;;;3.10;;
9372;SDS011;10838;52.350;9.790;2022-11-15T10:39:21;3.43;;;2.97;;
9372;SDS011;10838;52.350;9.790;2022-11-15T10:41:48;3.40;;;3.03;;
9372;SDS011;10838;52.350;9.790;2022-11-15T10:44:23;4.33;;;2.97;;
9372;SDS011;10838;52.350;9.790;2022-11-15T10:47:05;5.93;;;3.30;;
9372;SDS011;10838;52.350;9.790;2022-11-15T10:49:53;4.83;;;2.90;;
9372;SDS011;10838;52.350;9.790;2022-11-15T10:52:22;3.37;;;3.07;;
9372;SDS011;10838;52.350;9.790;2022-11-15T10:54:50;5.00;;;2.83;;
9372;SDS011;10838;52.350;9.790;2022-11-15T10:57:20;4.00;;;3.00;;
9372;SDS011;10838;52.350;9.790;2022-11-15T10:59:51;3.77;;;3.17;;
9372;SDS011;10838;52.350;9.790;2022-11-15T11:02:27;3.00;;;2.80;;
9372;SDS011;10838;52.350;9.790;2022-11-15T11:04:56;4.03;;;3.23;;
9372;SDS011;10838;52.350;9.790;2022-11-15T11:07:24;3.30;;;3.00;;
9372;SDS011;10838;52.350;9.790;2022-11-15T11:09:56;5.17;;;2.97;;
9372;SDS011;10838;52.350;9.790;2022-11-15T11:12:27;3.17;;;2.87;;
9372;SDS011;10838;52.350;9.790;2022-11-15T11:14:56;3.10;;;2.90;;
9372;SDS011;10838;52.350;9.790;2022-11-15T11:17:28;3.30;;;3.00;;
9372;SDS011;10838;52.350;9.790;2022-11-15T11:20:02;10.53;;;3.33;;
9372;SDS011;10838;52.350;9.790;2022-11-15T11:22:35;3.37;;;2.90;;
9372;SDS011;10838;52.350;9.790;2022-11-15T11:25:12;2.80;;;2.60;;
9372;SDS011;10838;52.350;9.790;2022-11-15T11:27:53;3.10;;;2.80;;
9372;SDS011;10838;52.350;9.790;2022-11-15T11:30:34;3.43;;;2.60;;
9372;SDS011;10838;52.350;9.790;2022-11-15T11:33:12;3.57;;;2.60;;
9372;SDS011;10838;52.350;9.790;2022-11-15T11:35:45;4.00;;;2.80;;
9372;SDS011;10838;52.350;9.790;2022-11-15T11:38:27;3.53;;;2.73;;
9372;SDS011;10838;52.350;9.790;2022-11-15T11:41:07;5.23;;;2.73;;
9372;SDS011;10838;52.350;9.790;2022-11-15T11:43:41;2.63;;;2.43;;
9372;SDS011;10838;52.350;9.790;2022-11-15T11:46:30;2.90;;;2.70;;
9372;SDS011;10838;52.350;9.790;2022-11-15T11:49:20;2.90;;;2.70;;
9372;SDS011;10838;52.350;9.790;2022-11-15T11:51:51;3.23;;;2.93;;
9372;SDS011;10838;52.350;9.790;2022-11-15T11:54:22;4.40;;;2.70;;
9372;SDS011;10838;52.350;9.790;2022-11-15T11:56:55;4.17;;;2.77;;
9372;SDS011;10838;52.350;9.790;2022-11-15T11:59:28;5.43;;;3.23;;
9372;SDS011;10838;52.350;9.790;2022-11-15T12:02:01;6.40;;;2.87;;
9372;SDS011;10838;52.350;9.790;2022-11-15T12:04:37;4.87;;;3.00;;
9372;SDS011;10838;52.350;9.790;2022-11-15T12:07:07;3.03;;;2.70;;
9372;SDS011;10838;52.350;9.790;2022-11-15T12:09:38;3.07;;;2.87;;
9372;SDS011;10838;52.350;9.790;2022-11-15T12:12:11;2.63;;;2.50;;
9372;SDS011;10838;52.350;9.790;2022-11-15T12:14:44;4.97;;;2.77;;
9372;SDS011;10838;52.350;9.790;2022-11-15T12:17:16;3.87;;;2.83;;
9372;SDS011;10838;52.350;9.790;2022-11-15T12:19:47;5.87;;;2.90;;
9372;SDS011;10838;52.350;9.790;2022-11-15T12:22:16;3.00;;;2.80;;
9372;SDS011;10838;52.350;9.790;2022-11-15T12:24:48;3.57;;;2.93;;
9372;SDS011;10838;52.350;9.790;2022-11-15T12:27:31;11.90;;;3.43;;
9372;SDS011;10838;52.350;9.790;2022-11-15T12:30:02;5.80;;;2.93;;
9372;SDS011;10838;52.350;9.790;2022-11-15T12:32:36;4.03;;;2.90;;
9372;SDS011;10838;52.350;9.790;2022-11-15T12:35:19;2.83;;;2.60;;
9372;SDS011;10838;52.350;9.790;2022-11-15T12:37:49;5.17;;;3.03;;
9372;SDS011;10838;52.350;9.790;2022-11-15T12:40:19;5.30;;;2.60;;
9372;SDS011;10838;52.350;9.790;2022-11-15T12:43:01;7.73;;;3.23;;
9372;SDS011;10838;52.350;9.790;2022-11-15T12:45:52;3.60;;;2.77;;
9372;SDS011;10838;52.350;9.790;2022-11-15T12:51:14;3.30;;;2.80;;
9372;SDS011;10838;52.350;9.790;2022-11-15T12:53:41;4.23;;;2.60;;
9372;SDS011;10838;52.350;9.790;2022-11-15T12:56:09;6.40;;;3.27;;
9372;SDS011;10838;52.350;9.790;2022-11-15T12:58:50;3.23;;;2.93;;
9372;SDS011;10838;52.350;9.790;2022-11-15T13:04:26;5.27;;;3.10;;
9372;SDS011;10838;52.350;9.790;2022-11-15T13:06:56;4.57;;;3.20;;
9372;SDS011;10838;52.350;9.790;2022-11-15T13:15:38;4.73;;;3.00;;
9372;SDS011;10838;52.350;9.790;2022-11-15T13:18:26;5.40;;;2.70;;
9372;SDS011;10838;52.350;9.790;2022-11-15T13:21:00;3.30;;;2.90;;
9372;SDS011;10838;52.350;9.790;2022-11-15T13:23:51;3.97;;;2.80;;
9372;SDS011;10838;52.350;9.790;2022-11-15T13:26:19;3.40;;;2.80;;
9372;SDS011;10838;52.350;9.790;2022-11-15T13:28:47;3.97;;;2.90;;
9372;SDS011;10838;52.350;9.790;2022-11-15T13:31:27;6.83;;;3.17;;
9372;SDS011;10838;52.350;9.790;2022-11-15T13:33:57;4.77;;;2.90;;
9372;SDS011;10838;52.350;9.790;2022-11-15T13:36:29;5.90;;;2.97;;
9372;SDS011;10838;52.350;9.790;2022-11-15T13:39:00;6.67;;;3.27;;
9372;SDS011;10838;52.350;9.790;2022-11-15T13:41:29;5.90;;;3.07;;
9372;SDS011;10838;52.350;9.790;2022-11-15T13:43:56;3.97;;;2.70;;
9372;SDS011;10838;52.350;9.790;2022-11-15T13:46:25;3.67;;;2.93;;
9372;SDS011;10838;52.350;9.790;2022-11-15T13:48:53;3.87;;;2.70;;
9372;SDS011;10838;52.350;9.790;2022-11-15T13:51:24;6.37;;;3.17;;
9372;SDS011;10838;52.350;9.790;2022-11-15T13:54:08;3.87;;;2.87;;
9372;SDS011;10838;52.350;9.790;2022-11-15T13:56:43;6.73;;;2.87;;
9372;SDS011;10838;52.350;9.790;2022-11-15T13:59:14;5.20;;;2.67;;
9372;SDS011;10838;52.350;9.790;2022-11-15T14:01:45;4.87;;;2.50;;
9372;SDS011;10838;52.350;9.790;2022-11-15T14:04:13;3.13;;;2.83;;
9372;SDS011;10838;52.350;9.790;2022-11-15T14:06:46;3.97;;;2.87;;
9372;SDS011;10838;52.350;9.790;2022-11-15T14:09:24;3.00;;;2.60;;
9372;SDS011;10838;52.350;9.790;2022-11-15T14:11:57;3.43;;;2.97;;
9372;SDS011;10838;52.350;9.790;2022-11-15T14:14:25;3.73;;;2.73;;
9372;SDS011;10838;52.350;9.790;2022-11-15T14:16:53;3.73;;;2.77;;
9372;SDS011;10838;52.350;9.790;2022-11-15T14:19:34;2.80;;;2.60;;
9372;SDS011;10838;52.350;9.790;2022-11-15T14:22:08;6.27;;;3.37;;
9372;SDS011;10838;52.350;9.790;2022-11-15T14:24:40;4.50;;;2.63;;
9372;SDS011;10838;52.350;9.790;2022-11-15T14:27:19;3.17;;;2.57;;
9372;SDS011;10838;52.350;9.790;2022-11-15T14:29:47;2.80;;;2.40;;
9372;SDS011;10838;52.350;9.790;2022-11-15T14:32:15;3.27;;;2.63;;
9372;SDS011;10838;52.350;9.790;2022-11-15T14:34:43;4.83;;;2.80;;
9372;SDS011;10838;52.350;9.790;2022-11-15T14:37:16;3.37;;;3.07;;
9372;SDS011;10838;52.350;9.790;2022-11-15T14:39:46;4.20;;;2.80;;
9372;SDS011;10838;52.350;9.790;2022-11-15T14:42:12;7.07;;;2.90;;
9372;SDS011;10838;52.350;9.790;2022-11-15T14:44:39;4.77;;;2.73;;
9372;SDS011;10838;52.350;9.790;2022-11-15T14:47:06;3.23;;;2.90;;
9372;SDS011;10838;52.350;9.790;2022-11-15T14:49:33;3.07;;;2.53;;
9372;SDS011;10838;52.350;9.790;2022-11-15T14:52:00;2.90;;;2.70;;
9372;SDS011;10838;52.350;9.790;2022-11-15T14:54:28;4.33;;;2.70;;
9372;SDS011;10838;52.350;9.790;2022-11-15T14:56:54;3.00;;;2.80;;
9372;SDS011;10838;52.350;9.790;2022-11-15T14:59:21;2.83;;;2.63;;
9372;SDS011;10838;52.350;9.790;2022-11-15T15:01:48;2.93;;;2.70;;
9372;SDS011;10838;52.350;9.790;2022-11-15T15:04:14;5.10;;;3.07;;
9372;SDS011;10838;52.350;9.790;2022-11-15T15:06:41;7.03;;;5.10;;
9372;SDS011;10838;52.350;9.790;2022-11-15T15:09:08;4.77;;;3.30;;
9372;SDS011;10838;52.350;9.790;2022-11-15T15:11:35;5.60;;;4.40;;
9372;SDS011;10838;52.350;9.790;2022-11-15T15:14:02;5.50;;;3.83;;
9372;SDS011;10838;52.350;9.790;2022-11-15T15:16:29;19.03;;;11.13;;
9372;SDS011;10838;52.350;9.790;2022-11-15T15:18:55;6.37;;;4.23;;
9372;SDS011;10838;52.350;9.790;2022-11-15T15:21:22;14.43;;;7.50;;
9372;SDS011;10838;52.350;9.790;2022-11-15T15:23:50;41.93;;;20.07;;
9372;SDS011;10838;52.350;9.790;2022-11-15T15:26:18;22.57;;;12.63;;
9372;SDS011;10838;52.350;9.790;2022-11-15T15:28:47;14.57;;;8.23;;